createdAt,value
2023-03-31T00:01:48.864Z,14.36
2023-03-31T00:04:53.150Z,14.83
2023-03-31T00:07:57.556Z,14.88
2023-03-31T00:11:01.531Z,14.89
2023-03-31T00:14:05.493Z,14.71
2023-03-31T00:17:09.567Z,14.73
2023-03-31T00:20:13.615Z,14.53
2023-03-31T00:23:17.582Z,14.43
2023-03-31T00:26:21.325Z,14.48
2023-03-31T00:29:25.528Z,14.33
2023-03-31T00:32:29.410Z,14.59
2023-03-31T00:35:33.497Z,14.53
2023-03-31T00:38:37.605Z,14.82
2023-03-31T00:41:41.331Z,14.53
2023-03-31T00:44:45.366Z,14.17
2023-03-31T00:47:49.169Z,14.11
2023-03-31T00:50:53.168Z,13.95
2023-03-31T00:53:57.005Z,13.94
2023-03-31T00:57:01.104Z,14.31
2023-03-31T01:00:05.138Z,14.29
2023-03-31T01:03:09.085Z,14.46
2023-03-31T01:06:16.216Z,14.24
2023-03-31T01:09:20.348Z,14.08
2023-03-31T01:12:24.284Z,14.33
2023-03-31T01:15:28.288Z,14.31
2023-03-31T01:18:32.327Z,14.64
2023-03-31T01:21:38.588Z,14.27
2023-03-31T01:24:42.417Z,14.28
2023-03-31T01:27:46.385Z,13.89
2023-03-31T01:30:50.462Z,13.97
2023-03-31T01:33:54.632Z,14.58
2023-03-31T01:36:58.683Z,14.46
2023-03-31T01:40:02.971Z,14.74
2023-03-31T01:43:06.871Z,14.75
2023-03-31T01:46:11.084Z,14.70
2023-03-31T01:49:16.462Z,14.85
2023-03-31T01:52:20.506Z,15.03
2023-03-31T01:55:24.640Z,14.87
2023-03-31T01:58:28.755Z,14.62
2023-03-31T02:01:34.413Z,14.53
2023-03-31T02:04:40.391Z,15.07
2023-03-31T02:07:44.818Z,14.69
2023-03-31T02:10:49.018Z,14.93
2023-03-31T02:13:53.023Z,15.11
2023-03-31T02:16:56.686Z,14.71
2023-03-31T02:20:00.692Z,14.58
2023-03-31T02:23:04.582Z,14.56
2023-03-31T02:26:08.834Z,14.48
2023-03-31T02:29:12.836Z,14.49
2023-03-31T02:32:16.922Z,14.59
2023-03-31T02:35:20.868Z,14.43
2023-03-31T02:38:27.522Z,14.60
2023-03-31T02:41:31.692Z,14.84
2023-03-31T02:44:35.793Z,14.79
2023-03-31T02:47:39.896Z,14.66
2023-03-31T02:50:43.769Z,14.80
2023-03-31T02:53:47.765Z,14.92
2023-03-31T02:56:51.929Z,14.77
2023-03-31T02:59:55.756Z,14.69
2023-03-31T03:02:59.905Z,14.47
2023-03-31T03:06:05.382Z,13.73
2023-03-31T03:09:11.405Z,14.52
2023-03-31T03:12:15.408Z,13.90
2023-03-31T03:15:19.350Z,14.26
2023-03-31T03:18:23.264Z,14.37
2023-03-31T03:21:27.463Z,14.51
2023-03-31T03:24:31.817Z,14.54
2023-03-31T03:27:35.695Z,14.69
2023-03-31T03:30:39.548Z,14.83
2023-03-31T03:33:43.360Z,14.55
2023-03-31T03:36:47.376Z,14.63
2023-03-31T03:39:51.514Z,14.70
2023-03-31T03:42:55.285Z,14.47
2023-03-31T03:45:59.380Z,13.87
2023-03-31T03:49:03.407Z,14.49
2023-03-31T03:52:07.334Z,14.60
2023-03-31T03:55:11.238Z,14.63
2023-03-31T03:58:15.042Z,14.55
2023-03-31T04:01:19.239Z,14.58
2023-03-31T04:04:25.083Z,14.74
2023-03-31T04:07:29.401Z,14.80
2023-03-31T04:10:33.312Z,14.68
2023-03-31T04:13:37.081Z,14.56
2023-03-31T04:16:41.003Z,14.59
2023-03-31T04:19:45.038Z,14.61
2023-03-31T04:22:49.211Z,14.25
2023-03-31T04:25:53.317Z,14.49
2023-03-31T04:28:57.441Z,14.63
2023-03-31T04:32:01.610Z,14.67
2023-03-31T04:35:05.756Z,14.66
2023-03-31T04:38:09.487Z,14.76
2023-03-31T04:41:13.242Z,14.69
2023-03-31T04:44:17.434Z,14.46
2023-03-31T04:47:21.621Z,14.35
2023-03-31T04:50:28.822Z,14.27
2023-03-31T04:53:32.985Z,14.15
2023-03-31T04:56:37.027Z,14.28
2023-03-31T04:59:41.024Z,14.05
2023-03-31T05:02:45.279Z,13.77
2023-03-31T05:05:49.451Z,13.99
2023-03-31T05:08:53.340Z,14.05
2023-03-31T05:11:56.997Z,14.07
2023-03-31T05:15:01.072Z,13.39
2023-03-31T05:18:05.463Z,13.80
2023-03-31T05:21:09.449Z,13.89
2023-03-31T05:24:15.456Z,13.91
2023-03-31T05:27:19.338Z,13.66
2023-03-31T05:30:23.196Z,13.84
2023-03-31T05:33:31.333Z,13.86
2023-03-31T05:36:35.602Z,14.00
2023-03-31T05:39:39.921Z,13.96
2023-03-31T05:42:44.108Z,13.69
2023-03-31T05:45:48.027Z,13.87
2023-03-31T05:48:51.945Z,13.97
2023-03-31T06:05:59.210Z,14.25
2023-03-31T06:12:41.767Z,13.77
2023-03-31T06:15:49.906Z,13.70
2023-03-31T06:18:54.687Z,13.89
2023-03-31T06:22:08.500Z,13.79
2023-03-31T06:25:19.176Z,13.97
2023-03-31T06:28:44.212Z,14.07
2023-03-31T06:31:52.901Z,13.81
2023-03-31T06:34:59.786Z,13.48
2023-03-31T06:38:12.775Z,13.63
2023-03-31T06:41:18.289Z,13.64
2023-03-31T06:44:25.582Z,13.59
2023-03-31T06:47:30.083Z,13.54
2023-03-31T06:50:37.785Z,13.67
2023-03-31T06:53:42.147Z,13.73
2023-03-31T06:56:46.610Z,13.92
2023-03-31T06:59:51.467Z,14.02
2023-03-31T07:02:55.782Z,14.12
2023-03-31T07:06:00.326Z,14.11
2023-03-31T07:09:06.803Z,14.01
2023-03-31T07:12:10.850Z,13.78
2023-03-31T07:15:15.268Z,13.84
2023-03-31T07:18:21.560Z,14.25
2023-03-31T07:21:25.706Z,14.14
2023-03-31T07:24:29.522Z,14.26
2023-03-31T07:27:33.433Z,14.34
2023-03-31T07:30:42.476Z,14.27
2023-03-31T07:33:48.246Z,13.96
2023-03-31T07:36:56.776Z,14.25
2023-03-31T07:40:14.893Z,14.40
2023-03-31T07:43:21.371Z,14.61
2023-03-31T07:46:26.510Z,14.97
2023-03-31T07:49:30.799Z,14.81
2023-03-31T07:52:37.701Z,14.68
2023-03-31T07:55:43.141Z,14.69
2023-03-31T07:58:47.587Z,15.07
2023-03-31T08:01:55.642Z,14.84
2023-03-31T08:05:02.579Z,15.00
2023-03-31T08:08:06.572Z,14.96
2023-03-31T08:11:17.472Z,14.79
2023-03-31T08:14:30.299Z,15.02
2023-03-31T08:17:44.625Z,15.12
2023-03-31T08:24:11.139Z,15.10
2023-03-31T08:27:18.261Z,15.26
2023-03-31T08:30:24.454Z,15.07
2023-03-31T08:33:28.906Z,14.70
2023-03-31T08:36:40.884Z,14.77
2023-03-31T08:39:48.415Z,14.52
2023-03-31T08:43:00.180Z,14.78
2023-03-31T08:46:07.502Z,14.95
2023-03-31T08:49:12.363Z,15.28
2023-03-31T08:52:21.620Z,15.07
2023-03-31T08:55:28.236Z,15.37
2023-03-31T08:58:35.409Z,15.54
2023-03-31T09:01:52.232Z,15.37
2023-03-31T09:05:01.166Z,15.55
2023-03-31T09:08:05.307Z,15.28
2023-03-31T09:11:12.284Z,15.11
2023-03-31T09:14:21.698Z,15.59
2023-03-31T09:20:52.496Z,15.39
2023-03-31T09:23:58.670Z,15.23
2023-03-31T09:27:03.001Z,14.45
2023-03-31T09:30:07.414Z,14.10
2023-03-31T09:33:11.962Z,14.50
2023-03-31T09:36:16.806Z,14.74
2023-03-31T09:39:22.177Z,14.64
2023-03-31T09:42:27.230Z,14.92
2023-03-31T09:45:31.209Z,15.25
2023-03-31T09:48:42.512Z,15.38
2023-03-31T09:51:48.191Z,15.10
2023-03-31T09:54:52.696Z,15.08
2023-03-31T09:57:56.961Z,15.36
2023-03-31T10:01:01.258Z,15.27
2023-03-31T10:04:05.616Z,15.42
2023-03-31T10:20:57.680Z,15.95
2023-03-31T10:24:03.077Z,15.73
2023-03-31T10:27:07.460Z,15.64
2023-03-31T10:30:12.145Z,15.29
2023-03-31T10:33:23.097Z,15.37
2023-03-31T10:36:33.440Z,15.14
2023-03-31T10:39:47.389Z,15.13
2023-03-31T10:42:53.801Z,15.39
2023-03-31T10:46:03.227Z,15.03
2023-03-31T10:49:09.984Z,14.83
2023-03-31T10:52:19.130Z,14.88
2023-03-31T10:55:23.365Z,15.00
2023-03-31T10:58:31.732Z,14.86
2023-03-31T11:01:37.060Z,14.83
2023-03-31T11:04:41.652Z,15.00
2023-03-31T11:07:53.339Z,15.03
2023-03-31T11:11:04.575Z,14.99
2023-03-31T11:14:32.050Z,14.84
2023-03-31T11:17:34.444Z,14.84
2023-03-31T11:20:38.640Z,14.99
2023-03-31T11:23:50.103Z,15.24
2023-03-31T11:26:57.826Z,15.19
2023-03-31T11:30:01.820Z,15.13
2023-03-31T11:33:12.045Z,15.20
2023-03-31T11:36:23.042Z,15.23
2023-03-31T11:39:27.200Z,14.98
2023-03-31T11:42:37.775Z,15.42
2023-03-31T11:45:47.402Z,15.51
2023-03-31T11:48:55.733Z,15.12
2023-03-31T11:55:13.629Z,14.20
2023-03-31T11:58:17.928Z,13.54
2023-03-31T12:01:22.070Z,13.67
2023-03-31T12:04:26.244Z,13.16
2023-03-31T12:07:30.066Z,12.58
2023-03-31T12:10:37.312Z,12.28
2023-03-31T12:13:41.284Z,12.60
2023-03-31T12:16:46.554Z,12.09
2023-03-31T12:19:53.577Z,11.37
2023-03-31T12:22:57.765Z,11.05
2023-03-31T12:26:41.432Z,10.61
2023-03-31T12:29:31.561Z,11.15
2023-03-31T12:32:37.075Z,11.16
2023-03-31T12:35:41.426Z,11.65
2023-03-31T12:38:48.941Z,12.03
2023-03-31T12:41:56.714Z,12.43
2023-03-31T12:45:09.731Z,12.75
2023-03-31T12:48:15.295Z,12.51
2023-03-31T12:58:28.878Z,14.23
2023-03-31T13:01:51.178Z,14.46
2023-03-31T13:05:09.899Z,14.61
2023-03-31T13:18:36.056Z,14.30
2023-03-31T13:22:10.746Z,14.11
2023-03-31T13:25:16.069Z,14.08
2023-03-31T13:28:36.570Z,14.05
2023-03-31T13:31:57.815Z,14.16
2023-03-31T13:35:05.961Z,14.00
2023-03-31T13:38:28.538Z,14.30
2023-03-31T13:41:36.986Z,14.70
2023-03-31T13:44:53.070Z,14.88
2023-03-31T13:48:03.641Z,15.33
2023-03-31T13:51:09.732Z,15.33
2023-03-31T13:54:15.395Z,15.82
2023-03-31T13:57:20.101Z,16.02
2023-03-31T14:01:14.240Z,16.11
2023-03-31T14:03:53.150Z,15.57
2023-03-31T14:06:59.125Z,15.01
2023-03-31T14:10:05.795Z,14.50
2023-03-31T14:13:11.859Z,14.14
2023-03-31T14:16:18.350Z,14.19
2023-03-31T14:19:25.667Z,14.36
2023-03-31T14:22:32.939Z,14.07
2023-03-31T14:25:37.408Z,13.32
2023-03-31T14:28:42.856Z,12.81
2023-03-31T14:31:52.719Z,11.67
2023-03-31T14:34:59.747Z,11.95
2023-03-31T14:38:04.401Z,11.69
2023-03-31T14:41:08.647Z,12.07
2023-03-31T14:44:12.888Z,11.89
2023-03-31T14:47:19.970Z,12.08
2023-03-31T14:50:27.994Z,11.71
2023-03-31T14:53:33.821Z,11.53
2023-03-31T14:56:37.633Z,11.58
2023-03-31T14:59:44.425Z,12.12
2023-03-31T15:03:01.961Z,12.94
2023-03-31T15:06:06.313Z,13.48
2023-03-31T15:09:10.423Z,13.97
2023-03-31T15:12:14.330Z,14.34
2023-03-31T15:15:18.257Z,14.55
2023-03-31T15:18:22.342Z,14.48
2023-03-31T15:21:28.518Z,14.20
2023-03-31T15:24:33.066Z,13.81
2023-03-31T15:27:38.113Z,13.49
2023-03-31T15:30:44.664Z,13.65
2023-03-31T15:33:53.258Z,13.51
2023-03-31T15:37:00.280Z,13.52
2023-03-31T15:40:07.422Z,13.39
2023-03-31T15:46:37.681Z,13.41
2023-03-31T15:49:42.349Z,13.60
2023-03-31T15:52:46.850Z,14.05
2023-03-31T15:59:13.843Z,14.40
2023-03-31T16:02:24.569Z,14.19
2023-03-31T16:05:37.371Z,14.42
2023-03-31T16:08:50.914Z,14.35
2023-03-31T16:12:03.942Z,14.60
2023-03-31T16:15:08.586Z,14.48
2023-03-31T16:18:15.253Z,14.41
2023-03-31T16:21:26.927Z,14.22
2023-03-31T16:24:32.334Z,14.48
2023-03-31T16:27:39.068Z,13.78
2023-03-31T16:30:48.509Z,13.37
2023-03-31T16:33:56.598Z,13.56
2023-03-31T16:37:01.079Z,14.06
2023-03-31T16:40:05.712Z,14.29
2023-03-31T16:43:10.386Z,14.54
2023-03-31T16:46:15.633Z,14.32
2023-03-31T16:49:19.887Z,14.35
2023-03-31T16:52:24.944Z,14.38
2023-03-31T16:55:29.021Z,13.96
2023-03-31T16:58:32.798Z,13.88
2023-03-31T17:01:38.159Z,13.78
2023-03-31T17:04:43.322Z,13.15
2023-03-31T17:07:47.512Z,12.37
2023-03-31T17:10:51.917Z,12.28
2023-03-31T17:13:56.229Z,12.06
2023-03-31T17:17:03.220Z,12.39
2023-03-31T17:20:07.219Z,12.45
2023-03-31T17:23:11.084Z,12.69
2023-03-31T17:26:15.388Z,12.53
2023-03-31T17:29:19.308Z,12.38
2023-03-31T17:32:23.659Z,12.41
2023-03-31T17:35:28.100Z,12.65
2023-03-31T17:38:33.328Z,12.73
2023-03-31T17:41:37.552Z,12.80
2023-03-31T17:44:44.679Z,12.17
2023-03-31T17:47:48.866Z,11.97
2023-03-31T17:50:52.726Z,12.09
2023-03-31T17:54:00.956Z,11.93
2023-03-31T17:57:04.917Z,12.40
2023-03-31T18:00:08.963Z,12.54
2023-03-31T18:03:12.760Z,12.24
2023-03-31T18:06:16.530Z,12.48
2023-03-31T18:09:20.390Z,12.09
2023-03-31T18:12:25.938Z,11.05
2023-03-31T18:15:30.020Z,11.17
2023-03-31T18:18:33.974Z,11.23
2023-03-31T18:21:37.947Z,10.91
2023-03-31T18:24:42.100Z,10.93
2023-03-31T18:27:46.364Z,11.28
2023-03-31T18:30:50.213Z,11.44
2023-03-31T18:33:54.546Z,11.62
2023-03-31T18:36:58.716Z,11.31
2023-03-31T18:40:02.588Z,11.42
2023-03-31T18:43:06.369Z,11.38
2023-03-31T18:46:10.107Z,11.60
2023-03-31T18:49:14.011Z,11.58
2023-03-31T18:52:19.266Z,11.73
2023-03-31T18:55:23.561Z,11.66
2023-03-31T18:58:27.567Z,11.75
2023-03-31T19:01:31.764Z,11.78
2023-03-31T19:04:35.777Z,11.73
2023-03-31T19:07:39.786Z,11.65
2023-03-31T19:27:30.712Z,11.68
2023-03-31T19:30:34.734Z,10.92
2023-03-31T19:33:38.901Z,11.43
2023-03-31T19:36:48.834Z,11.73
2023-03-31T19:39:52.848Z,11.24
2023-03-31T19:42:57.007Z,10.82
2023-03-31T19:46:00.842Z,11.50
2023-03-31T19:49:08.496Z,11.92
2023-03-31T19:52:12.409Z,11.94
2023-03-31T19:55:16.778Z,12.13
2023-03-31T19:58:20.708Z,12.31
2023-03-31T20:01:24.622Z,12.43
2023-03-31T20:04:29.490Z,12.38
2023-03-31T20:07:33.644Z,12.49
2023-03-31T20:10:37.745Z,12.42
2023-03-31T20:16:45.528Z,12.42
2023-03-31T20:19:49.467Z,12.45
2023-03-31T20:22:53.469Z,12.49
2023-03-31T20:25:57.206Z,12.48
2023-03-31T20:29:01.035Z,12.51
2023-03-31T20:32:06.855Z,12.55
2023-03-31T20:35:12.215Z,12.32
2023-03-31T20:38:16.543Z,12.47
2023-03-31T20:41:21.291Z,12.52
2023-03-31T20:44:25.437Z,12.64
2023-03-31T20:47:29.362Z,12.35
2023-03-31T20:50:33.765Z,11.82
2023-03-31T20:53:37.580Z,12.14
2023-03-31T20:56:41.621Z,12.14
2023-03-31T20:59:46.233Z,12.12
2023-03-31T21:02:50.159Z,11.88
2023-03-31T21:05:54.335Z,11.93
2023-03-31T21:08:58.258Z,11.69
2023-03-31T21:12:02.057Z,11.16
2023-03-31T21:15:06.091Z,11.06
2023-03-31T21:18:09.906Z,10.85
2023-03-31T21:21:13.972Z,10.96
2023-03-31T21:24:17.992Z,10.87
2023-03-31T21:27:21.919Z,11.06
2023-03-31T21:30:27.337Z,10.79
2023-03-31T21:33:31.672Z,10.86
2023-03-31T21:36:36.084Z,11.08
2023-03-31T21:39:39.929Z,11.27
2023-03-31T21:42:43.639Z,11.39
2023-03-31T21:45:47.741Z,11.03
2023-03-31T21:48:51.836Z,11.05
2023-03-31T21:51:55.737Z,11.14
2023-03-31T21:54:59.549Z,11.31
2023-03-31T21:58:03.212Z,11.34
2023-03-31T22:01:08.798Z,11.35
2023-03-31T22:04:13.379Z,11.62
2023-03-31T22:07:17.349Z,11.48
2023-03-31T22:10:21.331Z,11.45
2023-03-31T22:13:25.240Z,11.45
2023-03-31T22:16:29.308Z,11.26
2023-03-31T22:19:34.631Z,11.52
2023-03-31T22:22:39.825Z,11.58
2023-03-31T22:25:43.993Z,11.41
2023-03-31T22:28:47.685Z,11.53
2023-03-31T22:31:51.808Z,11.46
2023-03-31T22:34:56.015Z,11.19
2023-03-31T22:37:59.995Z,10.93
2023-03-31T22:41:03.796Z,10.95
2023-03-31T22:44:08.205Z,11.14
2023-03-31T22:47:12.288Z,10.95
2023-03-31T22:50:16.132Z,10.83
2023-03-31T22:53:19.996Z,10.89
2023-03-31T22:56:23.963Z,10.96
2023-03-31T22:59:28.046Z,11.01
2023-03-31T23:02:32.275Z,11.25
2023-03-31T23:05:36.149Z,11.32
2023-03-31T23:08:40.230Z,11.47
2023-03-31T23:11:44.097Z,11.52
2023-03-31T23:14:48.039Z,11.58
2023-03-31T23:17:52.016Z,11.61
2023-03-31T23:20:55.835Z,11.39
2023-03-31T23:23:59.706Z,11.34
2023-03-31T23:27:03.882Z,11.09
2023-03-31T23:30:09.560Z,10.64
2023-03-31T23:33:13.598Z,10.58
2023-03-31T23:36:17.434Z,10.64
2023-03-31T23:39:24.498Z,10.82
2023-03-31T23:42:28.605Z,10.77
2023-03-31T23:45:32.723Z,10.49
2023-03-31T23:48:37.203Z,10.47
2023-03-31T23:51:41.022Z,10.73
2023-03-31T23:54:44.864Z,10.99
2023-03-31T23:57:48.954Z,11.13
